Time;durP1;ratioP1;P1;durP2;ratioP2;P2;SDS_P1;SDS_P2;PMS_P1;PMS_P2;Temp;Humidity;BMP_temperature;BMP_pressure;BME280_temperature;BME280_humidity;BME280_pressure;Samples;Min_cycle;Max_cycle;Signal;HPM_P1;HPM_P2
2022/07/19 00:02:23;;;;;;;13.00;6.90;;;;;;;19.32;76.55;101692.72;5094879;28;20402;-80
2022/07/19 00:04:49;;;;;;;13.20;7.43;;;;;;;19.18;76.08;101672.97;5096768;28;20395;-80
2022/07/19 00:07:14;;;;;;;14.30;7.93;;;;;;;19.36;74.40;101684.81;5095484;28;20143;-80
2022/07/19 00:09:39;;;;;;;13.33;7.27;;;;;;;19.35;74.08;101684.00;5095642;28;20028;-79
2022/07/19 00:12:05;;;;;;;13.67;7.70;;;;;;;19.31;76.06;101685.56;5094691;28;20043;-80
2022/07/19 00:14:30;;;;;;;9.70;7.57;;;;;;;19.32;76.40;101681.72;5095273;28;20031;-80
2022/07/19 00:16:56;;;;;;;9.77;7.60;;;;;;;19.19;77.34;101677.41;5094910;28;20024;-80
2022/07/19 00:19:21;;;;;;;12.33;7.87;;;;;;;19.16;77.50;101685.31;5094901;28;20544;-80
2022/07/19 00:21:46;;;;;;;12.13;8.27;;;;;;;19.06;77.27;101684.03;5095816;28;20028;-80
2022/07/19 00:24:12;;;;;;;15.43;8.40;;;;;;;19.22;74.14;101681.56;5094239;28;20020;-80
2022/07/19 00:26:37;;;;;;;12.30;7.50;;;;;;;19.00;77.95;101674.06;5093384;28;20032;-80
2022/07/19 00:29:03;;;;;;;12.10;7.73;;;;;;;18.99;78.07;101677.88;5093430;28;20464;-79
2022/07/19 00:31:29;;;;;;;11.80;7.17;;;;;;;18.93;77.69;101678.03;5093900;28;20040;-79
2022/07/19 00:33:54;;;;;;;13.23;7.30;;;;;;;18.94;77.62;101674.22;5095778;28;20032;-79
2022/07/19 00:36:20;;;;;;;13.40;7.47;;;;;;;18.94;77.22;101668.72;5095401;28;20111;-79
2022/07/19 00:38:45;;;;;;;13.30;7.47;;;;;;;18.88;78.10;101671.38;5094522;28;20036;-80
2022/07/19 00:41:11;;;;;;;9.57;7.17;;;;;;;18.83;78.68;101667.69;5073736;28;20060;-79
2022/07/19 00:43:40;;;;;;;12.97;7.27;;;;;;;18.83;78.73;101667.69;5076439;28;20435;-80
2022/07/19 00:46:15;;;;;;;10.73;7.50;;;;;;;18.85;78.99;101663.63;5074915;28;20086;-80
2022/07/19 00:48:42;;;;;;;10.87;7.20;;;;;;;18.78;78.64;101664.84;5081789;28;20115;-79
2022/07/19 00:51:09;;;;;;;11.17;7.23;;;;;;;18.83;78.41;101664.94;5095922;28;20051;-80
2022/07/19 00:53:36;;;;;;;11.73;7.57;;;;;;;18.69;78.25;101659.75;5091666;28;20032;-80
2022/07/19 00:56:04;;;;;;;13.67;8.40;;;;;;;18.79;77.05;101658.28;5096331;28;20039;-79
2022/07/19 00:58:30;;;;;;;12.47;8.40;;;;;;;18.69;77.94;101650.69;5094327;28;20060;-79
2022/07/19 01:00:55;;;;;;;12.63;8.17;;;;;;;18.83;77.44;101662.19;5096543;28;20055;-79
2022/07/19 01:03:20;;;;;;;14.27;8.90;;;;;;;18.72;76.95;101656.50;5095346;28;20157;-80
2022/07/19 01:05:46;;;;;;;13.47;8.63;;;;;;;18.67;78.06;101655.59;5096363;28;20028;-80
2022/07/19 01:08:12;;;;;;;12.00;8.40;;;;;;;18.58;78.94;101652.41;5096330;28;20467;-80
2022/07/19 01:10:38;;;;;;;11.43;8.50;;;;;;;18.70;77.76;101661.44;5095159;28;20122;-80
2022/07/19 01:13:04;;;;;;;13.73;9.13;;;;;;;18.55;78.14;101661.97;5080538;28;20423;-80
2022/07/19 01:15:29;;;;;;;13.37;9.37;;;;;;;18.49;78.90;101656.63;5056261;28;20036;-80
2022/07/19 01:17:55;;;;;;;14.13;9.47;;;;;;;18.46;78.65;101657.13;5074917;28;20027;-80
2022/07/19 01:20:22;;;;;;;13.53;10.13;;;;;;;18.32;79.26;101662.09;5074948;28;20032;-80
2022/07/19 01:22:48;;;;;;;12.83;9.00;;;;;;;18.39;79.23;101660.84;5073532;28;20021;-86
2022/07/19 01:25:14;;;;;;;15.50;8.53;;;;;;;18.35;79.79;101662.41;5055079;28;20033;-79
2022/07/19 01:27:43;;;;;;;11.67;8.40;;;;;;;18.28;80.03;101661.72;5069640;28;20372;-79
2022/07/19 01:30:13;;;;;;;11.37;7.70;;;;;;;18.19;80.69;101663.19;5075303;28;20020;-80
2022/07/19 01:32:39;;;;;;;10.43;8.27;;;;;;;18.21;80.02;101663.78;5074628;28;20043;-80
2022/07/19 01:35:07;;;;;;;13.67;8.03;;;;;;;18.24;80.18;101666.03;5073685;28;20028;-80
2022/07/19 01:37:33;;;;;;;12.10;8.50;;;;;;;18.28;80.14;101669.97;5073921;28;20025;-81
2022/07/19 01:39:59;;;;;;;15.00;8.67;;;;;;;18.36;79.81;101669.56;5065188;28;20035;-80
2022/07/19 01:42:24;;;;;;;13.37;8.87;;;;;;;18.23;80.43;101670.66;5074080;28;20028;-79
2022/07/19 01:44:50;;;;;;;14.80;9.30;;;;;;;18.09;81.06;101674.78;5073818;28;20028;-80
2022/07/19 01:47:15;;;;;;;12.93;8.50;;;;;;;18.13;81.64;101667.75;5073214;28;20363;-80
2022/07/19 01:49:41;;;;;;;13.43;9.23;;;;;;;18.01;81.99;101667.75;5074978;28;20028;-80
2022/07/19 01:52:07;;;;;;;13.03;8.77;;;;;;;18.05;82.01;101665.38;5056371;28;20042;-79
2022/07/19 01:54:32;;;;;;;15.10;9.43;;;;;;;17.94;82.24;101661.59;5072879;28;20024;-80
2022/07/19 01:56:58;;;;;;;13.00;8.93;;;;;;;17.87;82.28;101658.94;5072638;28;20085;-79
2022/07/19 01:59:24;;;;;;;13.37;9.20;;;;;;;17.82;82.46;101668.97;5073442;28;20089;-79
2022/07/19 02:01:49;;;;;;;11.53;9.10;;;;;;;17.72;83.24;101670.41;5073047;28;20063;-78
2022/07/19 02:04:14;;;;;;;13.73;8.87;;;;;;;17.74;82.92;101656.44;5073470;28;20119;-79
2022/07/19 02:06:40;;;;;;;11.93;8.60;;;;;;;17.69;82.90;101659.91;5074654;28;20423;-78
2022/07/19 02:09:05;;;;;;;12.97;8.83;;;;;;;17.66;83.52;101660.38;5038195;28;20032;-78
2022/07/19 02:11:36;;;;;;;13.03;8.33;;;;;;;17.63;84.06;101663.59;5072109;28;20047;-78
2022/07/19 02:14:03;;;;;;;13.00;10.70;;;;;;;17.47;84.50;101650.63;5073758;28;20040;-79
2022/07/19 02:16:28;;;;;;;12.83;9.50;;;;;;;17.62;84.01;101652.88;5074200;28;20028;-78
2022/07/19 02:18:54;;;;;;;14.30;9.30;;;;;;;17.54;83.97;101654.94;5073880;28;20029;-79
2022/07/19 02:21:19;;;;;;;12.30;9.60;;;;;;;17.45;84.28;101645.41;5054061;28;20468;-78
2022/07/19 02:23:45;;;;;;;11.90;9.63;;;;;;;17.48;83.87;101652.31;5053035;28;20376;-79
2022/07/19 02:26:10;;;;;;;13.53;9.10;;;;;;;17.38;83.81;101650.16;5054672;28;20453;-78
2022/07/19 02:28:36;;;;;;;13.13;9.90;;;;;;;17.38;83.87;101652.91;5055773;28;20029;-79
2022/07/19 02:31:01;;;;;;;14.07;11.17;;;;;;;17.30;83.87;101642.28;5073220;28;20125;-78
2022/07/19 02:33:26;;;;;;;12.17;10.07;;;;;;;17.40;83.75;101639.78;5073814;28;20043;-79
2022/07/19 02:35:52;;;;;;;16.17;11.60;;;;;;;17.36;84.07;101633.94;5071876;28;20139;-79
2022/07/19 02:38:17;;;;;;;13.40;10.03;;;;;;;17.39;83.78;101638.13;5073120;28;20487;-79
2022/07/19 02:40:43;;;;;;;17.17;11.43;;;;;;;17.24;83.86;101633.09;5071544;28;20376;-78
2022/07/19 02:43:08;;;;;;;15.50;10.73;;;;;;;17.21;83.83;101634.41;5072636;28;20028;-78
2022/07/19 02:45:33;;;;;;;15.73;10.83;;;;;;;17.17;83.69;101640.63;5073411;28;20028;-78
2022/07/19 02:48:00;;;;;;;13.50;10.33;;;;;;;17.27;83.30;101635.41;5052687;28;20056;-79
2022/07/19 02:50:26;;;;;;;15.03;10.83;;;;;;;17.28;83.07;101636.22;5070833;28;20066;-78
2022/07/19 02:52:51;;;;;;;14.83;11.00;;;;;;;17.23;83.38;101639.69;5071893;28;20085;-79
2022/07/19 02:55:16;;;;;;;16.53;12.33;;;;;;;17.11;84.47;101641.53;5053718;28;20094;-80
2022/07/19 02:57:42;;;;;;;17.30;12.63;;;;;;;17.06;84.36;101635.97;5073312;28;20479;-79
2022/07/19 03:00:11;;;;;;;15.07;12.07;;;;;;;17.03;84.39;101629.88;5072596;28;20037;-79
2022/07/19 03:02:36;;;;;;;16.40;12.00;;;;;;;17.08;84.33;101626.44;5073183;28;20063;-79
2022/07/19 03:05:01;;;;;;;17.27;12.13;;;;;;;17.02;84.39;101630.94;5054532;28;20033;-79
2022/07/19 03:07:27;;;;;;;15.67;12.10;;;;;;;16.95;84.07;101637.63;5071533;28;20056;-79
2022/07/19 03:09:52;;;;;;;16.10;11.77;;;;;;;16.97;84.18;101627.25;5071662;28;20035;-79
2022/07/19 03:12:17;;;;;;;15.97;11.70;;;;;;;16.90;84.47;101626.53;5066842;28;20048;-79
2022/07/19 03:14:43;;;;;;;16.57;12.83;;;;;;;16.86;84.52;101620.66;5092120;28;20024;-79
2022/07/19 03:17:08;;;;;;;18.47;12.70;;;;;;;16.86;84.43;101612.44;5093108;28;20515;-79
2022/07/19 03:19:34;;;;;;;17.43;13.67;;;;;;;16.85;84.61;101616.28;5091412;28;20032;-79
2022/07/19 03:21:59;;;;;;;18.00;13.77;;;;;;;16.90;84.75;101605.47;5091890;28;20102;-79
2022/07/19 03:24:24;;;;;;;16.37;13.67;;;;;;;16.94;84.67;101611.31;5088819;28;20451;-79
2022/07/19 03:26:50;;;;;;;17.53;14.07;;;;;;;16.90;84.75;101613.66;5091757;28;20032;-79
2022/07/19 03:29:15;;;;;;;17.80;14.17;;;;;;;16.88;84.75;101616.63;5093034;28;20479;-79
2022/07/19 03:31:41;;;;;;;18.63;13.57;;;;;;;16.96;84.54;101612.75;5092362;28;20524;-79
2022/07/19 03:34:06;;;;;;;18.63;13.77;;;;;;;16.80;84.88;101602.44;5092037;28;20144;-79
2022/07/19 03:36:32;;;;;;;17.40;14.23;;;;;;;16.80;85.16;101608.75;5091166;28;20067;-79
2022/07/19 03:38:57;;;;;;;18.37;14.63;;;;;;;16.85;85.23;101610.78;5091325;28;20032;-79
2022/07/19 03:41:22;;;;;;;17.00;14.20;;;;;;;16.85;85.18;101621.75;5090010;28;20036;-79
2022/07/19 03:43:48;;;;;;;18.80;14.93;;;;;;;16.84;84.97;101611.84;5091553;28;20028;-79
2022/07/19 03:46:13;;;;;;;19.17;14.80;;;;;;;16.74;84.94;101608.84;5091972;28;20020;-79
2022/07/19 03:48:39;;;;;;;18.13;15.00;;;;;;;16.75;85.21;101618.72;5091526;28;20433;-79
2022/07/19 03:51:04;;;;;;;17.33;14.43;;;;;;;16.72;85.47;101611.81;5092615;28;20031;-79
2022/07/19 03:53:29;;;;;;;18.23;14.53;;;;;;;16.67;85.63;101615.28;5092857;28;20418;-79
2022/07/19 03:55:55;;;;;;;19.17;14.23;;;;;;;16.70;85.70;101614.81;5092619;28;20120;-79
2022/07/19 03:58:20;;;;;;;18.83;14.83;;;;;;;16.61;86.14;101605.25;5092395;28;20039;-79
2022/07/19 04:00:46;;;;;;;18.93;14.27;;;;;;;16.71;85.93;101621.94;5091446;28;20028;-79
2022/07/19 04:03:12;;;;;;;16.83;14.17;;;;;;;16.69;85.90;101618.59;5092009;28;20032;-80
2022/07/19 04:05:37;;;;;;;16.30;14.40;;;;;;;16.62;86.40;101611.53;5092949;28;20440;-79
2022/07/19 04:08:03;;;;;;;17.97;14.77;;;;;;;16.70;86.44;101620.28;5092293;28;20521;-80
2022/07/19 04:10:28;;;;;;;18.30;14.97;;;;;;;16.66;86.30;101624.53;5091596;28;20059;-79
2022/07/19 04:12:54;;;;;;;18.10;14.90;;;;;;;16.68;86.17;101621.56;5081193;28;20131;-79
2022/07/19 04:15:19;;;;;;;18.93;15.37;;;;;;;16.69;86.31;101623.25;5075843;28;20477;-79
2022/07/19 04:17:45;;;;;;;19.73;15.47;;;;;;;16.62;86.90;101622.50;5075664;28;20043;-79
2022/07/19 04:20:13;;;;;;;19.43;14.83;;;;;;;16.58;86.95;101611.19;5074313;28;20029;-79
2022/07/19 04:22:38;;;;;;;20.77;15.30;;;;;;;16.67;86.72;101615.28;5073834;28;20035;-79
2022/07/19 04:25:04;;;;;;;19.53;15.47;;;;;;;16.71;86.44;101619.22;5074151;28;20036;-79
2022/07/19 04:27:30;;;;;;;20.30;15.53;;;;;;;16.73;86.60;101621.72;5057566;28;20039;-79
2022/07/19 04:29:56;;;;;;;19.23;14.83;;;;;;;16.79;86.44;101623.50;5075003;28;20028;-79
2022/07/19 04:32:22;;;;;;;19.37;15.53;;;;;;;16.84;85.80;101626.38;5073469;28;20107;-79
2022/07/19 04:34:47;;;;;;;17.90;14.83;;;;;;;16.93;85.91;101626.91;5072534;28;20539;-79
2022/07/19 04:37:13;;;;;;;19.53;15.70;;;;;;;16.88;86.52;101616.63;5075504;28;20031;-79
2022/07/19 04:39:38;;;;;;;20.03;15.90;;;;;;;16.99;86.50;101619.66;5056629;28;20037;-79
2022/07/19 04:42:04;;;;;;;18.80;16.60;;;;;;;16.97;87.13;101617.16;5074444;28;20039;-79
2022/07/19 04:44:29;;;;;;;17.83;15.93;;;;;;;16.98;87.13;101610.59;5075543;28;20051;-79
2022/07/19 04:46:54;;;;;;;21.37;17.13;;;;;;;17.10;87.39;101612.53;5074693;28;20078;-79
2022/07/19 04:49:20;;;;;;;21.17;16.37;;;;;;;17.13;87.25;101615.59;5054166;28;20428;-79
2022/07/19 04:51:45;;;;;;;20.57;17.33;;;;;;;17.20;84.16;101602.66;5074416;28;20569;-79
2022/07/19 04:54:10;;;;;;;21.33;16.97;;;;;;;17.35;86.11;101615.88;5073315;28;20039;-79
2022/07/19 04:56:36;;;;;;;20.97;16.83;;;;;;;17.38;87.34;101614.56;5073629;28;20564;-79
2022/07/19 04:59:01;;;;;;;18.03;16.13;;;;;;;17.51;85.73;101608.81;5075651;28;20067;-79
2022/07/19 05:01:27;;;;;;;21.70;19.30;;;;;;;17.56;87.42;101619.06;5075177;28;20032;-79
2022/07/19 05:03:52;;;;;;;19.50;17.37;;;;;;;17.71;86.54;101626.78;5075239;28;20372;-79
2022/07/19 05:06:17;;;;;;;18.57;16.50;;;;;;;17.79;87.06;101625.56;5057448;28;20033;-79
2022/07/19 05:08:43;;;;;;;22.60;18.77;;;;;;;17.86;85.20;101618.06;5075176;28;20081;-79
2022/07/19 05:11:09;;;;;;;21.13;18.93;;;;;;;17.96;83.62;101610.06;5074852;28;20090;-79
2022/07/19 05:13:34;;;;;;;21.37;18.47;;;;;;;18.03;78.41;101604.44;5093506;28;20047;-79
2022/07/19 05:16:00;;;;;;;21.60;18.53;;;;;;;18.19;80.08;101614.63;5095027;28;20530;-79
2022/07/19 05:18:25;;;;;;;22.03;18.90;;;;;;;18.35;82.55;101624.00;5094390;28;20103;-79
2022/07/19 05:20:51;;;;;;;21.43;18.77;;;;;;;18.34;82.12;101603.13;5095089;28;20047;-79
2022/07/19 05:23:16;;;;;;;22.87;19.80;;;;;;;18.48;83.60;101617.41;5094234;28;20020;-79
2022/07/19 05:25:41;;;;;;;22.50;19.63;;;;;;;18.60;82.78;101614.56;5095182;28;20032;-79
2022/07/19 05:28:08;;;;;;;24.97;20.43;;;;;;;18.71;74.51;101613.69;5095160;28;20028;-79
2022/07/19 05:30:33;;;;;;;22.83;19.30;;;;;;;18.87;76.25;101623.00;5094187;28;20035;-79
2022/07/19 05:32:58;;;;;;;25.03;20.27;;;;;;;19.03;74.17;101629.63;5094869;28;20028;-79
2022/07/19 05:35:24;;;;;;;22.93;19.63;;;;;;;19.17;72.95;101629.28;5095594;28;20027;-78
2022/07/19 05:37:49;;;;;;;24.07;19.43;;;;;;;19.29;71.60;101623.72;5094039;28;20069;-79
2022/07/19 05:40:15;;;;;;;22.13;19.80;;;;;;;19.40;70.37;101620.84;5094385;28;20032;-79
2022/07/19 05:42:40;;;;;;;23.33;20.07;;;;;;;19.55;72.21;101624.91;5095189;28;20036;-79
2022/07/19 05:45:06;;;;;;;22.17;18.40;;;;;;;19.69;70.21;101625.38;5093973;28;20456;-79
2022/07/19 05:47:31;;;;;;;23.57;18.07;;;;;;;19.82;69.79;101630.53;5095197;28;20073;-78
2022/07/19 05:49:59;;;;;;;23.60;18.35;;;;;;;19.95;68.62;101629.31;5082194;28;20046;-80
2022/07/19 05:52:24;;;;;;;23.93;18.60;;;;;;;20.06;67.83;101625.59;5077488;28;20066;-81
2022/07/19 05:54:49;;;;;;;24.03;18.03;;;;;;;20.19;69.47;101632.63;5077387;28;20040;-82
2022/07/19 05:57:15;;;;;;;23.30;18.08;;;;;;;20.31;68.18;101631.66;5077159;28;20084;-83
2022/07/19 05:59:40;;;;;;;26.27;17.80;;;;;;;20.43;67.64;101629.59;5076792;28;20166;-82
2022/07/19 06:02:05;;;;;;;21.85;17.33;;;;;;;20.57;67.68;101636.31;5077003;28;20047;-80
2022/07/19 06:04:31;;;;;;;24.52;17.08;;;;;;;20.68;67.03;101626.28;5077185;28;20044;-79
2022/07/19 06:06:56;;;;;;;20.75;17.17;;;;;;;20.83;65.31;101635.78;5075754;28;20065;-80
2022/07/19 06:09:21;;;;;;;22.05;17.40;;;;;;;20.95;66.38;101638.38;5077415;28;20046;-79
2022/07/19 06:11:47;;;;;;;23.27;17.40;;;;;;;21.07;64.57;101634.31;5072896;28;20052;-78
2022/07/19 06:14:12;;;;;;;21.15;16.38;;;;;;;21.24;63.51;101645.22;5056774;28;20079;-80
2022/07/19 06:16:40;;;;;;;25.58;16.63;;;;;;;21.37;62.95;101643.91;5056675;28;20098;-79
2022/07/19 06:19:06;;;;;;;21.67;16.55;;;;;;;21.49;62.73;101634.63;5056741;28;20032;-79
2022/07/19 06:21:32;;;;;;;20.35;16.65;;;;;;;21.65;61.54;101639.16;5056080;28;20059;-78
2022/07/19 06:23:57;;;;;;;23.08;16.33;;;;;;;21.82;60.71;101638.97;5055967;28;20317;-79
2022/07/19 06:26:23;;;;;;;25.60;16.00;;;;;;;21.92;60.52;101638.19;5055603;28;20408;-78
2022/07/19 06:28:48;;;;;;;19.33;14.30;;;;;;;22.09;58.05;101647.06;5056141;28;20036;-79
2022/07/19 06:31:16;;;;;;;26.15;15.38;;;;;;;22.23;58.23;101650.16;5037580;28;20132;-79
2022/07/19 06:33:43;;;;;;;27.10;15.10;;;;;;;22.37;58.48;101650.53;5054354;28;20041;-78
2022/07/19 06:36:08;;;;;;;21.63;13.77;;;;;;;22.48;57.65;101650.53;5040062;28;20026;-78
2022/07/19 06:38:34;;;;;;;21.65;14.00;;;;;;;22.55;58.24;101635.38;5071101;28;20112;-77
2022/07/19 06:40:59;;;;;;;18.98;13.80;;;;;;;22.70;57.60;101645.63;5072377;28;20078;-78
2022/07/19 06:43:25;;;;;;;23.08;14.07;;;;;;;22.83;58.06;101643.41;5070750;28;20384;-78
2022/07/19 06:45:50;;;;;;;20.52;14.20;;;;;;;22.89;57.28;101634.84;5069967;28;20032;-78
2022/07/19 06:48:15;;;;;;;20.33;14.13;;;;;;;23.01;56.64;101636.50;5072553;28;20025;-78
2022/07/19 06:50:40;;;;;;;20.33;13.48;;;;;;;23.13;56.54;101644.53;5072121;28;20102;-78
2022/07/19 06:53:06;;;;;;;21.90;13.10;;;;;;;23.24;57.70;101635.13;5073553;28;20024;-78
2022/07/19 06:55:31;;;;;;;21.83;13.95;;;;;;;23.33;55.64;101630.69;5050406;28;20048;-80
2022/07/19 06:57:57;;;;;;;16.65;12.27;;;;;;;23.49;55.83;101628.75;5071641;28;20523;-78
2022/07/19 07:00:22;;;;;;;19.85;12.32;;;;;;;23.63;56.50;101630.91;5073456;28;20025;-78
2022/07/19 07:02:47;;;;;;;20.98;12.65;;;;;;;23.74;54.53;101630.59;5071298;28;20041;-79
2022/07/19 07:05:13;;;;;;;17.85;12.07;;;;;;;23.91;55.87;101633.06;5073874;28;20033;-78
2022/07/19 07:07:39;;;;;;;19.35;12.00;;;;;;;24.07;54.67;101630.19;5072237;28;20464;-78
2022/07/19 07:10:06;;;;;;;19.95;12.38;;;;;;;24.21;53.66;101639.56;5054113;28;20044;-83
2022/07/19 07:12:32;;;;;;;16.83;12.10;;;;;;;24.35;52.50;101627.84;5071225;28;20048;-78
2022/07/19 07:14:58;;;;;;;20.42;12.30;;;;;;;24.55;52.70;101633.25;5073247;28;20465;-79
2022/07/19 07:17:23;;;;;;;18.23;11.95;;;;;;;24.70;53.16;101626.81;5054163;28;20021;-79
2022/07/19 07:19:49;;;;;;;22.52;11.35;;;;;;;24.86;51.69;101630.28;5072833;28;20025;-79
2022/07/19 07:22:14;;;;;;;21.40;12.73;;;;;;;24.95;51.94;101624.94;5072546;28;20371;-80
2022/07/19 07:24:39;;;;;;;21.33;12.68;;;;;;;25.14;52.07;101630.59;5070220;28;20036;-81
2022/07/19 07:27:05;;;;;;;19.83;11.82;;;;;;;25.29;51.26;101624.06;5072108;28;20110;-81
2022/07/19 07:29:30;;;;;;;19.02;11.20;;;;;;;25.51;51.86;101628.31;5055300;28;20044;-80
2022/07/19 07:31:56;;;;;;;19.73;11.52;;;;;;;25.63;51.30;101625.94;5073181;28;20039;-80
2022/07/19 07:34:21;;;;;;;19.90;11.77;;;;;;;25.79;50.33;101632.16;5071453;28;20032;-79
2022/07/19 07:36:47;;;;;;;17.55;11.30;;;;;;;25.91;48.38;101623.41;5070587;28;20028;-80
2022/07/19 07:39:13;;;;;;;19.75;11.75;;;;;;;25.95;47.86;101622.50;5073440;28;20032;-80
2022/07/19 07:41:38;;;;;;;16.75;11.63;;;;;;;26.15;49.37;101622.56;5055513;28;20127;-78
2022/07/19 07:44:04;;;;;;;16.65;12.02;;;;;;;26.22;48.58;101623.00;5069458;28;20033;-81
2022/07/19 07:46:29;;;;;;;18.55;12.00;;;;;;;26.26;47.52;101618.50;5072377;28;20029;-81
2022/07/19 07:48:55;;;;;;;17.27;10.82;;;;;;;26.47;49.24;101616.25;5075892;28;20460;-81
2022/07/19 07:51:20;;;;;;;20.17;12.50;;;;;;;26.61;47.67;101610.75;5074776;28;20461;-80
2022/07/19 07:53:46;;;;;;;18.20;11.68;;;;;;;26.69;47.25;101618.41;5074414;28;20086;-81
2022/07/19 07:56:11;;;;;;;19.23;12.23;;;;;;;26.78;46.39;101613.03;5074484;28;20028;-80
2022/07/19 07:58:37;;;;;;;18.52;11.90;;;;;;;26.96;47.54;101614.94;5074877;28;20059;-81
2022/07/19 08:01:03;;;;;;;19.90;11.25;;;;;;;27.12;46.79;101611.91;5041926;28;20117;-81
2022/07/19 08:03:28;;;;;;;22.27;12.27;;;;;;;27.27;46.51;101613.56;5057736;28;20023;-81
2022/07/19 08:05:53;;;;;;;17.33;12.30;;;;;;;27.32;46.57;101602.31;5057816;28;20453;-80
2022/07/19 08:08:19;;;;;;;18.80;12.00;;;;;;;27.54;47.63;101604.44;5075362;28;20032;-80
2022/07/19 08:10:44;;;;;;;21.77;11.45;;;;;;;27.61;45.61;101604.03;5057657;28;20443;-80
2022/07/19 08:13:10;;;;;;;22.08;11.13;;;;;;;27.72;45.60;101605.47;5076696;28;20056;-80
2022/07/19 08:15:37;;;;;;;17.55;10.38;;;;;;;27.90;44.90;101611.22;5076257;28;20460;-80
2022/07/19 08:18:03;;;;;;;16.20;10.20;;;;;;;28.06;44.24;101609.78;5058671;28;20026;-81
2022/07/19 08:20:29;;;;;;;16.73;9.60;;;;;;;28.32;43.86;101608.38;5075964;28;20366;-81
2022/07/19 08:22:54;;;;;;;14.30;8.38;;;;;;;28.50;42.88;101601.78;5075948;28;20029;-80
2022/07/19 08:25:19;;;;;;;16.40;8.55;;;;;;;28.67;41.57;101603.09;5075531;28;20375;-81
2022/07/19 08:27:45;;;;;;;15.63;8.77;;;;;;;28.92;42.00;101604.44;5074427;28;20067;-81
2022/07/19 08:30:12;;;;;;;14.73;7.20;;;;;;;29.21;39.62;101605.88;5074793;28;20032;-81
2022/07/19 08:32:38;;;;;;;13.80;7.38;;;;;;;29.52;39.98;101605.06;5057918;28;20032;-83
2022/07/19 08:35:05;;;;;;;10.50;6.10;;;;;;;29.93;39.97;101610.31;5058271;28;20033;-82
2022/07/19 08:37:30;;;;;;;13.60;6.53;;;;;;;30.17;38.41;101605.41;5058473;28;20043;-81
2022/07/19 08:39:56;;;;;;;10.93;6.20;;;;;;;30.55;38.62;101597.22;5058800;28;20041;-82
2022/07/19 08:42:21;;;;;;;11.10;5.50;;;;;;;30.85;37.35;101602.94;5058653;28;20036;-82
2022/07/19 08:44:54;;;;;;;13.73;5.97;;;;;;;31.17;36.55;101608.28;5058565;28;20168;-82
2022/07/19 08:47:21;;;;;;;13.80;6.90;;;;;;;31.29;36.47;101597.22;5057911;28;20506;-81
2022/07/19 08:49:48;;;;;;;13.15;5.57;;;;;;;31.57;36.37;101588.38;5039337;28;20033;-82
2022/07/19 08:52:14;;;;;;;11.00;5.97;;;;;;;31.74;34.98;101590.28;5058170;28;20040;-82
2022/07/19 08:54:40;;;;;;;10.73;4.90;;;;;;;32.13;35.64;101594.59;5040348;28;20090;-82
2022/07/19 08:59:50;;;;;;;12.43;4.75;;;;;;;32.45;32.52;101581.03;5057391;28;20059;-82
2022/07/19 09:02:16;;;;;;;11.60;5.05;;;;;;;32.73;34.36;101594.47;5057805;28;20033;-82
2022/07/19 09:04:41;;;;;;;12.35;4.68;;;;;;;32.79;33.10;101587.47;5058119;28;20028;-82
2022/07/19 09:07:07;;;;;;;13.32;4.72;;;;;;;33.11;33.34;101587.75;5058254;28;20327;-82
2022/07/19 09:09:34;;;;;;;8.73;4.82;;;;;;;33.27;32.65;101582.31;5058073;28;20083;-81
2022/07/19 09:12:01;;;;;;;10.88;4.80;;;;;;;33.21;31.09;101583.69;5062875;28;20411;-82
2022/07/19 09:14:34;;;;;;;7.88;4.55;;;;;;;33.54;31.86;101582.78;5076020;28;20043;-82
2022/07/19 09:17:11;;;;;;;9.57;4.53;;;;;;;33.63;32.25;101579.84;5077814;28;20028;-82
2022/07/19 09:19:39;;;;;;;10.70;4.38;;;;;;;33.60;33.98;101570.13;5077931;28;20589;-82
2022/07/19 09:22:10;;;;;;;11.07;4.20;;;;;;;34.11;32.01;101577.31;5077678;28;20050;-81
2022/07/19 09:24:38;;;;;;;10.68;4.47;;;;;;;34.03;31.61;101575.47;5077943;28;20036;-82
2022/07/19 09:27:09;;;;;;;11.88;4.45;;;;;;;34.41;31.82;101580.66;5077771;28;20065;-82
2022/07/19 09:29:36;;;;;;;13.13;4.20;;;;;;;34.31;30.96;101584.81;5078562;28;20106;-82
2022/07/19 09:32:16;;;;;;;8.98;4.07;;;;;;;34.40;30.12;101573.38;5077506;28;20094;-82
2022/07/19 09:34:50;;;;;;;7.40;4.18;;;;;;;34.53;30.82;101570.50;5077564;28;20028;-82
2022/07/19 09:37:18;;;;;;;9.77;4.30;;;;;;;34.62;31.44;101576.78;5077676;28;20554;-82
2022/07/19 09:39:45;;;;;;;9.23;4.45;;;;;;;34.76;30.32;101571.56;5077580;28;20129;-82
2022/07/19 09:42:15;;;;;;;9.52;4.22;;;;;;;34.53;30.76;101560.09;5077778;28;21344;-82
2022/07/19 09:44:41;;;;;;;8.52;4.00;;;;;;;34.71;30.38;101566.19;5077405;28;20040;-82
2022/07/19 09:47:06;;;;;;;8.35;4.05;;;;;;;34.82;30.37;101567.31;5078142;28;20040;-81
2022/07/19 09:49:32;;;;;;;8.57;4.13;;;;;;;35.08;29.75;101563.16;5090425;28;20448;-83
2022/07/19 09:51:58;;;;;;;12.32;4.03;;;;;;;35.16;29.89;101555.72;5091442;28;20460;-83
2022/07/19 09:54:26;;;;;;;11.75;4.10;;;;;;;35.08;29.08;101559.53;5077036;28;20079;-83
2022/07/19 09:56:52;;;;;;;12.20;4.43;;;;;;;35.21;28.86;101565.88;5092465;28;20107;-79
2022/07/19 09:59:19;;;;;;;6.35;3.90;;;;;;;35.45;28.69;101565.69;5094409;28;20040;-80
2022/07/19 10:01:48;;;;;;;9.60;4.22;;;;;;;35.35;29.27;101563.44;5092601;28;20032;-82
2022/07/19 10:04:15;;;;;;;9.85;3.80;;;;;;;35.27;28.14;101561.63;5092354;28;20024;-81
2022/07/19 10:06:42;;;;;;;8.70;3.80;;;;;;;35.46;28.75;101560.91;5090846;28;20031;-81
2022/07/19 10:09:09;;;;;;;7.43;3.80;;;;;;;35.45;29.02;101560.06;5093304;28;20028;-81
2022/07/19 10:11:35;;;;;;;9.15;4.00;;;;;;;35.89;29.54;101561.91;5093184;28;20036;-81
2022/07/19 10:14:01;;;;;;;12.68;4.00;;;;;;;35.85;28.24;101558.19;5093007;28;20038;-82
2022/07/19 10:16:45;;;;;;;7.78;4.20;;;;;;;36.04;28.93;101548.94;5094908;28;20449;-81
2022/07/19 10:19:15;;;;;;;15.77;4.00;;;;;;;35.70;27.92;101556.19;5088584;28;20077;-81
2022/07/19 10:21:42;;;;;;;9.80;4.25;;;;;;;35.87;27.69;101555.81;5090086;28;20056;-81
2022/07/19 10:24:08;;;;;;;10.63;3.88;;;;;;;36.06;28.24;101543.72;5090701;28;20146;-81
2022/07/19 10:26:40;;;;;;;6.60;3.60;;;;;;;36.41;28.82;101553.31;5093112;28;20115;-81
2022/07/19 10:29:15;;;;;;;10.85;3.80;;;;;;;36.52;27.33;101539.41;5093782;28;20043;-81
2022/07/19 10:31:42;;;;;;;10.40;3.80;;;;;;;36.62;27.37;101533.16;5092808;28;20073;-82
2022/07/19 10:34:11;;;;;;;12.18;4.15;;;;;;;36.69;25.65;101536.09;5092272;28;20460;-81
2022/07/19 10:36:40;;;;;;;5.68;3.47;;;;;;;36.71;26.56;101535.72;5092218;28;20028;-82
2022/07/19 10:39:17;;;;;;;9.13;3.70;;;;;;;36.76;26.25;101538.22;5091160;28;20080;-81
2022/07/19 10:42:21;;;;;;;11.95;3.67;;;;;;;36.64;26.12;101536.44;5091061;28;20028;-82
2022/07/19 10:44:56;;;;;;;11.75;3.90;;;;;;;36.54;26.00;101525.75;5093136;28;20028;-82
2022/07/19 10:47:35;;;;;;;7.93;3.97;;;;;;;36.52;26.62;101519.63;5089715;28;20028;-81
2022/07/19 10:50:14;;;;;;;7.35;3.50;;;;;;;36.65;27.38;101523.91;5091888;28;20456;-81
2022/07/19 10:52:42;;;;;;;8.30;3.53;;;;;;;36.80;26.50;101516.53;5087625;28;20446;-81
2022/07/19 10:55:24;;;;;;;9.00;3.90;;;;;;;36.83;32.51;101513.78;5088116;28;20077;-80
2022/07/19 10:57:51;;;;;;;8.90;3.95;;;;;;;36.89;26.26;101514.28;5090239;28;20077;-82
2022/07/19 11:00:17;;;;;;;11.45;3.88;;;;;;;36.93;24.90;101512.34;5093249;28;20115;-81
2022/07/19 11:02:43;;;;;;;8.30;3.58;;;;;;;36.83;24.36;101508.16;5092172;28;20103;-81
2022/07/19 11:05:21;;;;;;;8.30;3.70;;;;;;;37.10;25.51;101510.19;5092353;28;20459;-81
2022/07/19 11:07:51;;;;;;;7.38;3.95;;;;;;;37.02;24.22;101509.28;5092701;28;20032;-82
2022/07/19 11:10:27;;;;;;;7.68;3.60;;;;;;;37.25;25.55;101503.56;5093759;28;20028;-81
2022/07/19 11:12:55;;;;;;;9.07;3.42;;;;;;;37.24;25.26;101504.78;5092798;28;20044;-82
2022/07/19 11:15:21;;;;;;;12.38;3.53;;;;;;;37.21;23.99;101499.06;5073745;28;20100;-82